Time;durP1;ratioP1;P1;durP2;ratioP2;P2;SDS_P1;SDS_P2;PMS_P1;PMS_P2;Temp;Humidity;BMP_temperature;BMP_pressure;BME280_temperature;BME280_humidity;BME280_pressure;Samples;Min_cycle;Max_cycle;Signal;HPM_P1;HPM_P2
2023/08/14 00:01:09;;;;;;;6.50;4.70;;;;;;;;;;5010341;28;20260;-67
2023/08/14 00:03:35;;;;;;;8.23;5.30;;;;;;;;;;5018074;28;20418;-68
2023/08/14 00:06:02;;;;;;;7.87;5.40;;;;;;;;;;5016219;28;20673;-67
2023/08/14 00:08:28;;;;;;;6.32;5.07;;;;;;;;;;5012407;28;20430;-67
2023/08/14 00:10:53;;;;;;;7.70;4.97;;;;;;;;;;5017166;28;20720;-67
2023/08/14 00:13:24;;;;;;;6.80;4.43;;;;;;;;;;5018560;28;20985;-67
2023/08/14 00:15:51;;;;;;;6.43;4.53;;;;;;;;;;5023833;28;20119;-68
2023/08/14 00:18:17;;;;;;;9.05;5.00;;;;;;;;;;5019867;28;20124;-67
2023/08/14 00:20:43;;;;;;;7.57;5.10;;;;;;;;;;5015083;28;20073;-66
2023/08/14 00:23:08;;;;;;;6.20;4.80;;;;;;;;;;5013978;28;20135;-67
2023/08/14 00:25:36;;;;;;;7.10;5.03;;;;;;;;;;5017353;28;20018;-67
2023/08/14 00:28:01;;;;;;;7.03;4.80;;;;;;;;;;5014069;28;20025;-67
2023/08/14 00:30:26;;;;;;;9.00;5.13;;;;;;;;;;5016168;28;20396;-68
2023/08/14 00:32:52;;;;;;;7.63;5.00;;;;;;;;;;5017282;28;20399;-68
2023/08/14 00:35:17;;;;;;;7.33;5.20;;;;;;;;;;5013501;28;20332;-67
2023/08/14 00:37:46;;;;;;;6.83;5.10;;;;;;;;;;5010510;28;20029;-67
2023/08/14 00:40:11;;;;;;;;;;;;;;;;;;5007611;28;20021;-67
2023/08/14 00:42:38;;;;;;;7.60;5.13;;;;;;;;;;5013953;28;20034;-68
2023/08/14 00:45:03;;;;;;;8.65;5.30;;;;;;;;;;5012427;28;20060;-68
2023/08/14 00:47:31;;;;;;;8.02;5.32;;;;;;;;;;5017074;28;20539;-68
2023/08/14 00:49:56;;;;;;;6.93;5.32;;;;;;;;;;5018619;28;20068;-68
2023/08/14 00:52:21;;;;;;;7.40;5.18;;;;;;;;;;5015749;28;20033;-68
2023/08/14 00:54:47;;;;;;;6.20;4.90;;;;;;;;;;5026986;28;20123;-66
2023/08/14 00:57:12;;;;;;;11.07;5.70;;;;;;;;;;5010259;28;20237;-66
2023/08/14 00:59:40;;;;;;;6.90;5.35;;;;;;;;;;5024308;28;20026;-67
2023/08/14 01:02:08;;;;;;;7.88;5.47;;;;;;;;;;5012648;28;20096;-67
2023/08/14 01:04:35;;;;;;;6.95;5.18;;;;;;;;;;5009436;28;20049;-67
2023/08/14 01:07:00;;;;;;;9.20;5.53;;;;;;;;;;5011641;28;20032;-67
2023/08/14 01:09:25;;;;;;;7.70;5.60;;;;;;;;;;5010999;28;20457;-67
2023/08/14 01:12:06;;;;;;;7.43;5.70;;;;;;;;;;5005367;28;20887;-67
2023/08/14 01:14:32;;;;;;;9.95;5.75;;;;;;;;;;5001705;28;20030;-68
2023/08/14 01:17:06;;;;;;;6.85;5.78;;;;;;;;;;5017049;28;20021;-67
2023/08/14 01:19:34;;;;;;;8.80;5.85;;;;;;;;;;4996960;28;20028;-68
2023/08/14 01:21:59;;;;;;;8.88;5.82;;;;;;;;;;5041203;28;20503;-69
2023/08/14 01:24:43;;;;;;;9.23;5.83;;;;;;;;;;5015339;28;20017;-69
2023/08/14 01:27:08;;;;;;;8.05;5.95;;;;;;;;;;5009134;28;20029;-66
2023/08/14 01:29:34;;;;;;;7.82;5.53;;;;;;;;;;5013373;28;20020;-67
2023/08/14 01:31:59;;;;;;;7.97;6.10;;;;;;;;;;5012459;28;20024;-67
2023/08/14 01:34:24;;;;;;;6.83;5.73;;;;;;;;;;5011261;28;20022;-67
2023/08/14 01:36:49;;;;;;;7.90;5.90;;;;;;;;;;5013924;28;21005;-67
2023/08/14 01:39:17;;;;;;;8.90;6.10;;;;;;;;;;5012316;28;20017;-66
2023/08/14 01:41:54;;;;;;;8.43;5.55;;;;;;;;;;5007991;28;20013;-67
2023/08/14 01:44:25;;;;;;;8.73;5.70;;;;;;;;;;5013813;28;20477;-68
2023/08/14 01:46:52;;;;;;;7.22;5.95;;;;;;;;;;5010379;28;20028;-68
2023/08/14 01:49:18;;;;;;;10.07;6.50;;;;;;;;;;5012779;28;20040;-69
2023/08/14 01:51:45;;;;;;;10.60;5.28;;;;;;;;;;5017752;28;20017;-69
2023/08/14 01:54:10;;;;;;;7.80;5.22;;;;;;;;;;5013693;28;20029;-67
2023/08/14 01:56:36;;;;;;;7.13;5.18;;;;;;;;;;5017350;28;20040;-68
2023/08/14 01:59:03;;;;;;;7.30;5.70;;;;;;;;;;5017522;28;20025;-69
2023/08/14 02:01:31;;;;;;;6.97;5.63;;;;;;;;;;5013281;28;20036;-67
2023/08/14 02:03:58;;;;;;;7.03;5.47;;;;;;;;;;5021340;28;20025;-68
2023/08/14 02:06:23;;;;;;;7.82;5.47;;;;;;;;;;5018725;28;20079;-67
2023/08/14 02:08:48;;;;;;;8.13;5.30;;;;;;;;;;5017864;28;20018;-66
2023/08/14 02:11:14;;;;;;;6.97;4.83;;;;;;;;;;5019780;28;20342;-66
2023/08/14 02:13:39;;;;;;;8.43;5.50;;;;;;;;;;5013852;28;20467;-66
2023/08/14 02:16:04;;;;;;;7.45;5.53;;;;;;;;;;5015623;28;20336;-67
2023/08/14 02:18:30;;;;;;;6.75;5.30;;;;;;;;;;5013518;28;20029;-66
2023/08/14 02:20:57;;;;;;;6.20;5.00;;;;;;;;;;5011218;28;20358;-67
2023/08/14 02:23:24;;;;;;;9.10;5.55;;;;;;;;;;5016001;28;20866;-65
2023/08/14 02:25:52;;;;;;;7.80;4.95;;;;;;;;;;5020570;28;20132;-65
2023/08/14 02:28:17;;;;;;;8.40;5.03;;;;;;;;;;5014128;28;20024;-66
2023/08/14 02:30:43;;;;;;;6.73;4.80;;;;;;;;;;5016220;28;20021;-65
2023/08/14 02:33:08;;;;;;;7.10;4.97;;;;;;;;;;5018729;28;20286;-65
2023/08/14 02:35:36;;;;;;;6.80;5.40;;;;;;;;;;5012068;28;20086;-66
2023/08/14 02:38:02;;;;;;;7.40;4.43;;;;;;;;;;5016678;28;20021;-66
2023/08/14 02:40:27;;;;;;;8.50;5.13;;;;;;;;;;5015625;28;20032;-66
2023/08/14 02:42:58;;;;;;;8.48;5.07;;;;;;;;;;5008543;28;20841;-66
2023/08/14 02:45:24;;;;;;;6.10;5.28;;;;;;;;;;5024545;28;20024;-66
2023/08/14 02:47:49;;;;;;;7.83;5.60;;;;;;;;;;5011995;28;20026;-66
2023/08/14 02:50:14;;;;;;;5.90;4.67;;;;;;;;;;5013105;28;20771;-66
2023/08/14 02:52:39;;;;;;;7.80;5.72;;;;;;;;;;5006783;28;20287;-66
2023/08/14 02:55:05;;;;;;;10.20;6.87;;;;;;;;;;5031512;28;20024;-65
2023/08/14 02:57:30;;;;;;;7.65;6.50;;;;;;;;;;5005289;28;20245;-66
2023/08/14 02:59:58;;;;;;;7.95;6.20;;;;;;;;;;5011241;28;20103;-66
2023/08/14 03:02:23;;;;;;;9.93;6.43;;;;;;;;;;5012709;28;20771;-66
2023/08/14 03:04:49;;;;;;;8.07;6.83;;;;;;;;;;5004410;28;20034;-66
2023/08/14 03:07:14;;;;;;;9.00;6.97;;;;;;;;;;5015246;28;20255;-67
2023/08/14 03:09:39;;;;;;;9.47;7.30;;;;;;;;;;5016865;28;20032;-67
2023/08/14 03:12:07;;;;;;;10.07;7.10;;;;;;;;;;5013278;28;20026;-66
2023/08/14 03:14:35;;;;;;;7.82;7.03;;;;;;;;;;5015478;28;20025;-67
2023/08/14 03:17:02;;;;;;;10.25;7.10;;;;;;;;;;5014198;28;20052;-66
2023/08/14 03:19:30;;;;;;;10.57;7.88;;;;;;;;;;5010967;28;20022;-66
2023/08/14 03:21:55;;;;;;;11.25;8.20;;;;;;;;;;5013145;28;20045;-70
2023/08/14 03:24:20;;;;;;;9.98;7.72;;;;;;;;;;5013589;28;20821;-67
2023/08/14 03:26:48;;;;;;;10.20;7.70;;;;;;;;;;5016542;28;20397;-62
2023/08/14 03:29:15;;;;;;;10.45;7.57;;;;;;;;;;5009792;28;20383;-67
2023/08/14 03:31:41;;;;;;;12.35;7.82;;;;;;;;;;5016000;28;20112;-65
2023/08/14 03:34:06;;;;;;;9.33;7.50;;;;;;;;;;5016527;28;20133;-67
2023/08/14 03:36:31;;;;;;;9.63;7.23;;;;;;;;;;5015169;28;20108;-65
2023/08/14 03:38:56;;;;;;;11.90;7.47;;;;;;;;;;5015138;28;20038;-67
2023/08/14 03:41:22;;;;;;;9.60;8.10;;;;;;;;;;5012845;28;20052;-65
2023/08/14 03:43:47;;;;;;;8.75;7.85;;;;;;;;;;5010476;28;20976;-67
2023/08/14 03:46:12;;;;;;;9.52;8.20;;;;;;;;;;5011782;28;20493;-66
2023/08/14 03:48:38;;;;;;;10.00;7.97;;;;;;;;;;5014101;28;20065;-67
2023/08/14 03:51:03;;;;;;;9.83;7.90;;;;;;;;;;5014559;28;20032;-70
2023/08/14 03:53:28;;;;;;;9.23;7.77;;;;;;;;;;5015233;28;20833;-65
2023/08/14 03:55:54;;;;;;;9.13;8.07;;;;;;;;;;5015973;28;20321;-68
2023/08/14 03:58:19;;;;;;;9.80;8.43;;;;;;;;;;5019014;28;20116;-66
2023/08/14 04:00:52;;;;;;;9.77;7.80;;;;;;;;;;5016290;28;20268;-67
2023/08/14 04:03:17;;;;;;;8.73;7.40;;;;;;;;;;5006269;28;20118;-67
2023/08/14 04:05:43;;;;;;;9.70;7.78;;;;;;;;;;5013110;28;20629;-65
2023/08/14 04:08:08;;;;;;;9.27;7.22;;;;;;;;;;5017392;28;20029;-67
2023/08/14 04:10:34;;;;;;;9.30;7.22;;;;;;;;;;5012708;28;20030;-67
2023/08/14 04:12:59;;;;;;;10.45;6.78;;;;;;;;;;5037748;28;20038;-67
2023/08/14 04:15:27;;;;;;;8.85;7.30;;;;;;;;;;5020852;28;20439;-67
2023/08/14 04:17:52;;;;;;;8.38;7.05;;;;;;;;;;5006237;28;20314;-65
2023/08/14 04:20:20;;;;;;;7.73;6.30;;;;;;;;;;5012071;28;20875;-66
2023/08/14 04:22:48;;;;;;;8.40;6.65;;;;;;;;;;5023718;28;20194;-66
2023/08/14 04:25:15;;;;;;;8.80;6.35;;;;;;;;;;5012326;28;20024;-66
2023/08/14 04:27:40;;;;;;;7.82;5.65;;;;;;;;;;5015904;28;20460;-65
2023/08/14 04:30:06;;;;;;;8.68;5.60;;;;;;;;;;5006369;28;20024;-67
2023/08/14 04:32:31;;;;;;;6.32;5.15;;;;;;;;;;5008991;28;20552;-66
2023/08/14 04:34:57;;;;;;;5.93;3.80;;;;;;;;;;5008883;28;20014;-65
2023/08/14 04:37:24;;;;;;;6.13;3.85;;;;;;;;;;5011336;28;20817;-64
2023/08/14 04:39:52;;;;;;;7.47;3.60;;;;;;;;;;5010402;28;20056;-65
2023/08/14 04:42:17;;;;;;;7.97;4.07;;;;;;;;;;5011558;28;20025;-65
2023/08/14 04:44:46;;;;;;;5.97;3.70;;;;;;;;;;5007437;28;20685;-64
2023/08/14 04:47:13;;;;;;;6.32;3.72;;;;;;;;;;5012788;28;20278;-62
2023/08/14 04:49:39;;;;;;;5.20;3.72;;;;;;;;;;5010815;28;20460;-63
2023/08/14 04:52:06;;;;;;;6.43;3.73;;;;;;;;;;5013349;28;20075;-63
2023/08/14 04:54:31;;;;;;;5.78;3.70;;;;;;;;;;5016629;28;20082;-65
2023/08/14 04:56:57;;;;;;;7.20;3.92;;;;;;;;;;5016297;28;20031;-64
2023/08/14 04:59:22;;;;;;;5.88;3.75;;;;;;;;;;5014741;28;20024;-65
2023/08/14 05:01:48;;;;;;;7.30;4.27;;;;;;;;;;5012945;28;20032;-65
2023/08/14 05:04:13;;;;;;;5.57;3.87;;;;;;;;;;5032249;28;20431;-64
2023/08/14 05:06:38;;;;;;;5.83;3.97;;;;;;;;;;5016505;28;20268;-64
2023/08/14 05:09:03;;;;;;;5.43;3.97;;;;;;;;;;5021292;28;20550;-64
2023/08/14 05:11:30;;;;;;;5.80;4.10;;;;;;;;;;5016244;28;21325;-65
2023/08/14 05:13:55;;;;;;;6.75;4.25;;;;;;;;;;5013727;28;20035;-65
2023/08/14 05:16:21;;;;;;;6.38;4.38;;;;;;;;;;5022766;28;20021;-63
2023/08/14 05:18:49;;;;;;;6.35;4.32;;;;;;;;;;5014876;28;20131;-64
2023/08/14 05:21:16;;;;;;;7.22;3.97;;;;;;;;;;5019724;28;20049;-64
2023/08/14 05:23:44;;;;;;;5.88;4.20;;;;;;;;;;5016150;28;20449;-65
2023/08/14 05:26:10;;;;;;;6.15;4.07;;;;;;;;;;5017109;28;20116;-63
2023/08/14 05:28:35;;;;;;;6.75;4.10;;;;;;;;;;5013523;28;20021;-65
2023/08/14 05:31:00;;;;;;;6.47;3.67;;;;;;;;;;5016309;28;20025;-65
2023/08/14 05:33:28;;;;;;;5.10;3.63;;;;;;;;;;5009394;28;20033;-64
2023/08/14 05:35:53;;;;;;;5.70;3.83;;;;;;;;;;5010789;28;20056;-65
2023/08/14 05:38:18;;;;;;;5.87;3.77;;;;;;;;;;5043479;28;20708;-64
2023/08/14 05:40:43;;;;;;;5.63;3.80;;;;;;;;;;5009609;28;20117;-64
2023/08/14 05:43:10;;;;;;;6.43;3.87;;;;;;;;;;5007997;28;20053;-64
2023/08/14 05:45:36;;;;;;;6.13;3.78;;;;;;;;;;5013275;28;20151;-64
2023/08/14 05:48:02;;;;;;;6.63;4.10;;;;;;;;;;5008556;28;20033;-63
2023/08/14 05:50:27;;;;;;;5.53;3.85;;;;;;;;;;5020975;28;20220;-64
2023/08/14 05:52:56;;;;;;;6.57;3.70;;;;;;;;;;5011286;28;20025;-64
2023/08/14 05:55:25;;;;;;;5.60;3.60;;;;;;;;;;5023077;28;20150;-63
2023/08/14 05:57:50;;;;;;;5.85;3.67;;;;;;;;;;5016546;28;20033;-65
2023/08/14 06:00:18;;;;;;;6.20;3.90;;;;;;;;;;5035741;28;20029;-65
2023/08/14 06:02:44;;;;;;;6.32;3.92;;;;;;;;;;5008916;28;20029;-65
2023/08/14 06:05:10;;;;;;;5.53;3.42;;;;;;;;;;5010065;28;20103;-63
2023/08/14 06:07:37;;;;;;;5.80;3.50;;;;;;;;;;5012572;28;20091;-64
2023/08/14 06:10:04;;;;;;;5.05;3.30;;;;;;;;;;5015075;28;20088;-64
2023/08/14 06:12:29;;;;;;;5.70;3.90;;;;;;;;;;5015482;28;20031;-63
2023/08/14 06:14:55;;;;;;;6.78;3.75;;;;;;;;;;5022698;28;20017;-64
2023/08/14 06:17:20;;;;;;;6.30;3.30;;;;;;;;;;5019606;28;20049;-65
2023/08/14 06:19:45;;;;;;;5.80;3.60;;;;;;;;;;5020358;28;20099;-64
2023/08/14 06:22:10;;;;;;;6.47;3.60;;;;;;;;;;5011654;28;20927;-64
2023/08/14 06:24:36;;;;;;;7.23;3.70;;;;;;;;;;5019775;28;20329;-64
2023/08/14 06:27:01;;;;;;;5.95;3.80;;;;;;;;;;5018673;28;20821;-64
2023/08/14 06:29:26;;;;;;;5.80;3.67;;;;;;;;;;5020059;28;20118;-64
2023/08/14 06:31:51;;;;;;;5.50;3.40;;;;;;;;;;5017087;28;20759;-61
2023/08/14 06:34:17;;;;;;;6.27;3.50;;;;;;;;;;5008476;28;20124;-64
2023/08/14 06:36:44;;;;;;;6.87;4.30;;;;;;;;;;5008988;28;20251;-64
2023/08/14 06:39:12;;;;;;;5.55;3.30;;;;;;;;;;5011031;28;20355;-65
2023/08/14 06:41:39;;;;;;;6.18;3.95;;;;;;;;;;5006548;28;20025;-64
2023/08/14 06:44:07;;;;;;;6.63;3.60;;;;;;;;;;5009606;28;20029;-64
2023/08/14 06:46:32;;;;;;;6.47;3.80;;;;;;;;;;5010057;28;20017;-64
2023/08/14 06:48:57;;;;;;;5.50;3.73;;;;;;;;;;5012588;28;20561;-63
2023/08/14 06:51:22;;;;;;;5.53;3.80;;;;;;;;;;5016641;28;20282;-64
2023/08/14 06:53:48;;;;;;;6.60;3.60;;;;;;;;;;5006127;28;20033;-64
2023/08/14 06:56:13;;;;;;;6.50;3.70;;;;;;;;;;5011966;28;20851;-64
2023/08/14 06:58:41;;;;;;;6.60;3.70;;;;;;;;;;5015298;28;20138;-63
2023/08/14 07:01:06;;;;;;;6.90;4.30;;;;;;;;;;5017556;28;20075;-64
2023/08/14 07:03:32;;;;;;;7.10;4.90;;;;;;;;;;5031371;28;20061;-64
2023/08/14 07:05:59;;;;;;;7.80;4.10;;;;;;;;;;5013763;28;20021;-64
2023/08/14 07:08:25;;;;;;;6.50;3.90;;;;;;;;;;5006606;28;20068;-63
2023/08/14 07:10:56;;;;;;;5.37;3.60;;;;;;;;;;5016845;28;20152;-64
2023/08/14 07:13:21;;;;;;;6.30;3.97;;;;;;;;;;5008026;28;20284;-64
2023/08/14 07:15:47;;;;;;;6.38;3.85;;;;;;;;;;5011367;28;20026;-64
2023/08/14 07:18:14;;;;;;;5.20;3.45;;;;;;;;;;5040748;28;20036;-62
2023/08/14 07:20:43;;;;;;;5.97;3.67;;;;;;;;;;5013723;28;20053;-63
2023/08/14 07:23:10;;;;;;;6.10;3.40;;;;;;;;;;5006374;28;20018;-63
2023/08/14 07:25:35;;;;;;;5.70;3.50;;;;;;;;;;5011234;28;20025;-62
2023/08/14 07:28:01;;;;;;;5.40;3.17;;;;;;;;;;5021283;28;20029;-60
2023/08/14 07:30:26;;;;;;;5.53;3.30;;;;;;;;;;5008307;28;20029;-66
2023/08/14 07:32:51;;;;;;;5.37;3.17;;;;;;;;;;5007033;28;20025;-64
2023/08/14 07:35:16;;;;;;;5.17;3.27;;;;;;;;;;5010719;28;20025;-65
2023/08/14 07:37:44;;;;;;;6.03;3.90;;;;;;;;;;5013316;28;20782;-63
2023/08/14 07:40:10;;;;;;;6.72;3.50;;;;;;;;;;5019628;28;20255;-63
2023/08/14 07:42:38;;;;;;;5.05;3.03;;;;;;;;;;5015265;28;20531;-63
2023/08/14 07:45:03;;;;;;;5.50;3.67;;;;;;;;;;5015050;28;20071;-63
2023/08/14 07:47:28;;;;;;;7.18;3.28;;;;;;;;;;5015629;28;20033;-63
2023/08/14 07:49:53;;;;;;;5.40;3.47;;;;;;;;;;5010861;28;20704;-64
2023/08/14 07:52:21;;;;;;;6.70;3.63;;;;;;;;;;5032879;28;20441;-64
2023/08/14 07:54:46;;;;;;;8.00;4.90;;;;;;;;;;5010774;28;20322;-63
2023/08/14 07:57:14;;;;;;;6.57;4.00;;;;;;;;;;5013534;28;20116;-64
2023/08/14 07:59:39;;;;;;;8.23;5.03;;;;;;;;;;5012726;28;20679;-65
2023/08/14 08:02:05;;;;;;;8.63;6.40;;;;;;;;;;5011553;28;20468;-64
2023/08/14 08:04:36;;;;;;;9.02;7.13;;;;;;;;;;5008167;28;20465;-63
2023/08/14 08:07:02;;;;;;;6.00;3.85;;;;;;;;;;5011538;28;20447;-64
2023/08/14 08:09:27;;;;;;;7.07;4.88;;;;;;;;;;5010898;28;20120;-65
2023/08/14 08:11:55;;;;;;;6.90;3.50;;;;;;;;;;5012200;28;20124;-65
2023/08/14 08:14:20;;;;;;;6.40;3.55;;;;;;;;;;5012003;28;20287;-63
2023/08/14 08:16:49;;;;;;;6.03;3.70;;;;;;;;;;5011760;28;20424;-64
2023/08/14 08:19:14;;;;;;;6.93;3.47;;;;;;;;;;5007490;28;20017;-65
2023/08/14 08:21:39;;;;;;;5.93;3.50;;;;;;;;;;5010875;28;20130;-64
2023/08/14 08:24:05;;;;;;;5.50;3.23;;;;;;;;;;5009480;28;20030;-64
2023/08/14 08:26:32;;;;;;;4.97;3.15;;;;;;;;;;5013394;28;20121;-65
2023/08/14 08:28:58;;;;;;;5.15;3.40;;;;;;;;;;5007017;28;20484;-63
2023/08/14 08:31:23;;;;;;;6.13;3.07;;;;;;;;;;5012866;28;20116;-62
2023/08/14 08:33:48;;;;;;;5.03;2.88;;;;;;;;;;5007834;28;20351;-62
2023/08/14 08:36:17;;;;;;;5.35;3.10;;;;;;;;;;5008183;28;20091;-64
2023/08/14 08:38:42;;;;;;;5.10;3.10;;;;;;;;;;5019228;28;20013;-62
2023/08/14 08:41:08;;;;;;;6.75;3.00;;;;;;;;;;5012214;28;20543;-63
2023/08/14 08:43:36;;;;;;;6.00;3.10;;;;;;;;;;5011589;28;20163;-63
2023/08/14 08:46:02;;;;;;;5.25;2.88;;;;;;;;;;5014466;28;20032;-63
2023/08/14 08:48:31;;;;;;;5.32;3.10;;;;;;;;;;5040522;28;20207;-63
2023/08/14 08:50:57;;;;;;;5.43;2.95;;;;;;;;;;5010995;28;20029;-63
2023/08/14 08:53:22;;;;;;;4.95;2.35;;;;;;;;;;5018068;28;20032;-64
2023/08/14 08:55:48;;;;;;;4.57;2.90;;;;;;;;;;5009587;28;20057;-64
2023/08/14 08:58:19;;;;;;;5.10;2.80;;;;;;;;;;5028967;28;20022;-63
2023/08/14 09:00:47;;;;;;;5.15;2.72;;;;;;;;;;5042509;28;20021;-63
2023/08/14 09:03:14;;;;;;;5.30;2.97;;;;;;;;;;5024715;28;20515;-65
2023/08/14 09:05:41;;;;;;;4.88;2.80;;;;;;;;;;5012635;28;20103;-64
2023/08/14 09:08:08;;;;;;;4.97;2.92;;;;;;;;;;5012425;28;20441;-64
2023/08/14 09:10:33;;;;;;;4.70;2.85;;;;;;;;;;5011184;28;20104;-62
2023/08/14 09:12:59;;;;;;;4.97;2.90;;;;;;;;;;5010607;28;20022;-63
2023/08/14 09:15:24;;;;;;;5.20;2.90;;;;;;;;;;5009001;28;20341;-60
2023/08/14 09:17:53;;;;;;;5.78;3.00;;;;;;;;;;5013886;28;20344;-62
2023/08/14 09:20:19;;;;;;;;;;;;;;;;;;5006457;28;20125;-64
2023/08/14 09:22:44;;;;;;;5.53;3.10;;;;;;;;;;5008062;28;19951;-64
2023/08/14 09:25:10;;;;;;;5.22;3.13;;;;;;;;;;5006082;28;20155;-63
2023/08/14 09:27:35;;;;;;;5.43;2.90;;;;;;;;;;5007481;28;20030;-64
2023/08/14 09:30:01;;;;;;;5.65;3.00;;;;;;;;;;5014354;28;20063;-64
2023/08/14 09:32:26;;;;;;;5.47;2.90;;;;;;;;;;5002707;28;20069;-63
2023/08/14 09:35:01;;;;;;;5.93;3.03;;;;;;;;;;5011866;28;20132;-65
2023/08/14 09:37:27;;;;;;;5.47;3.47;;;;;;;;;;5027322;28;20272;-64
2023/08/14 09:40:13;;;;;;;6.13;2.92;;;;;;;;;;5010091;28;20068;-65
2023/08/14 09:42:40;;;;;;;6.13;3.50;;;;;;;;;;5012565;28;20117;-63
2023/08/14 09:45:08;;;;;;;5.38;3.10;;;;;;;;;;5014087;28;20225;-64
2023/08/14 09:47:34;;;;;;;4.80;3.08;;;;;;;;;;5014412;28;20021;-63
2023/08/14 09:50:01;;;;;;;5.32;3.38;;;;;;;;;;5016304;28;20036;-63
2023/08/14 09:52:27;;;;;;;5.65;3.45;;;;;;;;;;5015420;28;20052;-64
2023/08/14 09:54:53;;;;;;;4.90;3.10;;;;;;;;;;5031860;28;20025;-63
2023/08/14 09:57:20;;;;;;;5.45;3.15;;;;;;;;;;5016106;28;20026;-64
2023/08/14 09:59:45;;;;;;;5.05;3.10;;;;;;;;;;5010476;28;20021;-62
2023/08/14 10:02:12;;;;;;;5.60;3.50;;;;;;;;;;5011751;28;20040;-64
2023/08/14 10:04:40;;;;;;;5.80;3.78;;;;;;;;;;5014393;28;20021;-65
2023/08/14 10:07:06;;;;;;;5.10;3.15;;;;;;;;;;5012345;28;20351;-64
2023/08/14 10:09:34;;;;;;;5.70;3.33;;;;;;;;;;5014532;28;20021;-62
2023/08/14 10:12:02;;;;;;;5.93;3.50;;;;;;;;;;5012724;28;20037;-63
2023/08/14 10:14:31;;;;;;;6.07;3.58;;;;;;;;;;5005272;28;20440;-62
2023/08/14 10:17:00;;;;;;;5.22;3.70;;;;;;;;;;5008342;28;20025;-63
2023/08/14 10:19:27;;;;;;;5.80;3.53;;;;;;;;;;5003158;28;20417;-63
2023/08/14 10:21:53;;;;;;;4.80;3.35;;;;;;;;;;5012476;28;20152;-64
2023/08/14 10:24:19;;;;;;;6.03;3.22;;;;;;;;;;5012582;28;20025;-65
2023/08/14 10:26:46;;;;;;;5.20;3.30;;;;;;;;;;5016415;28;20025;-64
2023/08/14 10:29:15;;;;;;;4.90;3.30;;;;;;;;;;5011150;28;20032;-64
2023/08/14 10:31:40;;;;;;;5.70;3.50;;;;;;;;;;5014478;28;20026;-64
2023/08/14 10:34:08;;;;;;;6.28;3.67;;;;;;;;;;5015435;28;20040;-64
2023/08/14 10:36:33;;;;;;;6.07;4.18;;;;;;;;;;5014007;28;20126;-63
2023/08/14 10:39:11;;;;;;;6.60;3.73;;;;;;;;;;5013454;28;20034;-64
2023/08/14 10:41:36;;;;;;;6.35;3.20;;;;;;;;;;5028268;28;20037;-63
2023/08/14 10:44:12;;;;;;;5.05;3.35;;;;;;;;;;5018275;28;20250;-64
2023/08/14 10:46:41;;;;;;;5.10;3.30;;;;;;;;;;5019329;28;20021;-63
2023/08/14 10:49:06;;;;;;;5.70;3.47;;;;;;;;;;5015616;28;20017;-65
2023/08/14 10:51:32;;;;;;;5.50;3.50;;;;;;;;;;5014609;28;20267;-64
2023/08/14 10:54:08;;;;;;;5.18;3.38;;;;;;;;;;5018647;28;20280;-65
2023/08/14 10:56:43;;;;;;;5.72;3.30;;;;;;;;;;5016230;28;20021;-62
2023/08/14 10:59:22;;;;;;;6.25;3.40;;;;;;;;;;5016687;28;20029;-63
2023/08/14 11:01:51;;;;;;;5.00;3.40;;;;;;;;;;5014568;28;20112;-63
2023/08/14 11:04:20;;;;;;;6.07;3.70;;;;;;;;;;5016587;28;20017;-63
2023/08/14 11:06:57;;;;;;;5.30;2.93;;;;;;;;;;5012848;28;20524;-63
2023/08/14 11:09:22;;;;;;;6.68;2.92;;;;;;;;;;5015569;28;20439;-63
2023/08/14 11:11:48;;;;;;;5.50;3.00;;;;;;;;;;5012171;28;20024;-64
2023/08/14 11:14:13;;;;;;;4.53;2.80;;;;;;;;;;5014821;28;20568;-64
2023/08/14 11:16:40;;;;;;;5.47;2.93;;;;;;;;;;5013494;28;20033;-64
2023/08/14 11:19:06;;;;;;;5.18;2.97;;;;;;;;;;5020143;28;20267;-65
2023/08/14 11:21:34;;;;;;;5.75;3.25;;;;;;;;;;5008090;28;20456;-65
2023/08/14 11:24:01;;;;;;;5.90;3.08;;;;;;;;;;5007534;28;20098;-64
2023/08/14 11:26:32;;;;;;;5.10;3.10;;;;;;;;;;5013155;28;20036;-63
2023/08/14 11:28:57;;;;;;;6.15;3.28;;;;;;;;;;5011776;28;20033;-63
2023/08/14 11:31:25;;;;;;;4.63;2.90;;;;;;;;;;5015619;28;20069;-65
2023/08/14 11:33:50;;;;;;;5.13;3.00;;;;;;;;;;5008138;28;20713;-63
2023/08/14 11:36:15;;;;;;;4.97;3.00;;;;;;;;;;5010140;28;20030;-63
2023/08/14 11:38:40;;;;;;;4.77;3.10;;;;;;;;;;5012898;28;20096;-64
2023/08/14 11:41:06;;;;;;;4.83;2.90;;;;;;;;;;5012704;28;20248;-63
2023/08/14 11:43:31;;;;;;;4.97;2.90;;;;;;;;;;5011544;28;20828;-62
2023/08/14 11:45:59;;;;;;;5.00;2.73;;;;;;;;;;5014831;28;20108;-62
2023/08/14 11:48:27;;;;;;;5.25;2.60;;;;;;;;;;5012631;28;20018;-62
2023/08/14 11:50:52;;;;;;;5.80;3.00;;;;;;;;;;5011194;28;20047;-63
2023/08/14 11:53:18;;;;;;;4.90;2.97;;;;;;;;;;5008365;28;20408;-63
2023/08/14 11:55:43;;;;;;;5.10;2.60;;;;;;;;;;5012829;28;20040;-64
2023/08/14 11:58:08;;;;;;;4.10;2.37;;;;;;;;;;5009042;28;20855;-63
2023/08/14 12:00:33;;;;;;;5.23;2.70;;;;;;;;;;5012380;28;20028;-62
2023/08/14 12:02:59;;;;;;;5.27;2.60;;;;;;;;;;5011875;28;20029;-63
2023/08/14 12:05:24;;;;;;;4.33;2.30;;;;;;;;;;5008664;28;20367;-63
2023/08/14 12:07:52;;;;;;;6.33;2.70;;;;;;;;;;5003035;28;21018;-62
2023/08/14 12:10:17;;;;;;;4.00;2.40;;;;;;;;;;5015285;28;20476;-64
2023/08/14 12:12:42;;;;;;;4.20;2.20;;;;;;;;;;5013359;28;20036;-61
2023/08/14 12:15:08;;;;;;;4.32;2.40;;;;;;;;;;5010360;28;20287;-62
2023/08/14 12:17:37;;;;;;;4.30;2.40;;;;;;;;;;5012423;28;20110;-62
2023/08/14 12:20:06;;;;;;;4.97;2.50;;;;;;;;;;5009941;28;20017;-62
2023/08/14 12:22:31;;;;;;;5.40;2.50;;;;;;;;;;5011034;28;21185;-63
2023/08/14 12:24:59;;;;;;;4.50;2.50;;;;;;;;;;5009499;28;20022;-65
2023/08/14 12:27:30;;;;;;;5.13;2.50;;;;;;;;;;5016079;28;20029;-61
2023/08/14 12:29:57;;;;;;;4.88;2.90;;;;;;;;;;5010174;28;20087;-63
2023/08/14 12:32:23;;;;;;;4.47;2.50;;;;;;;;;;5011386;28;20458;-63
2023/08/14 12:34:49;;;;;;;5.05;2.90;;;;;;;;;;5015050;28;20029;-64
2023/08/14 12:37:15;;;;;;;5.35;2.70;;;;;;;;;;5009494;28;20629;-64
2023/08/14 12:39:40;;;;;;;6.05;3.25;;;;;;;;;;5008455;28;20036;-64
2023/08/14 12:42:06;;;;;;;4.55;2.50;;;;;;;;;;5009455;28;20032;-63
2023/08/14 12:44:31;;;;;;;6.28;2.90;;;;;;;;;;5009909;28;20037;-62
2023/08/14 12:46:56;;;;;;;4.67;2.80;;;;;;;;;;5011342;28;20083;-63
2023/08/14 12:49:22;;;;;;;6.87;3.07;;;;;;;;;;5008140;28;20029;-62
2023/08/14 12:51:48;;;;;;;4.80;2.85;;;;;;;;;;5010664;28;20755;-63
2023/08/14 12:54:15;;;;;;;5.40;2.80;;;;;;;;;;5010091;28;20087;-62
2023/08/14 12:56:41;;;;;;;4.78;2.80;;;;;;;;;;5013349;28;20711;-62
2023/08/14 12:59:06;;;;;;;4.80;2.80;;;;;;;;;;5014384;28;20028;-64
2023/08/14 13:01:32;;;;;;;6.28;2.95;;;;;;;;;;5013731;28;20059;-64
2023/08/14 13:03:57;;;;;;;4.40;2.75;;;;;;;;;;5014247;28;20021;-63
2023/08/14 13:06:25;;;;;;;4.85;3.00;;;;;;;;;;5008410;28;20034;-63
2023/08/14 13:08:51;;;;;;;6.22;2.90;;;;;;;;;;5009322;28;20036;-62
2023/08/14 13:11:18;;;;;;;5.63;2.97;;;;;;;;;;5008423;28;20033;-63
2023/08/14 13:13:45;;;;;;;5.05;3.30;;;;;;;;;;5012444;28;20303;-63
2023/08/14 13:16:13;;;;;;;5.65;3.40;;;;;;;;;;5036019;28;20017;-62
2023/08/14 13:18:40;;;;;;;5.45;3.20;;;;;;;;;;5018712;28;20485;-63
2023/08/14 13:21:08;;;;;;;6.82;3.30;;;;;;;;;;5018248;28;20042;-63
2023/08/14 13:23:34;;;;;;;5.25;3.20;;;;;;;;;;5017510;28;20033;-63
2023/08/14 13:26:07;;;;;;;6.47;3.20;;;;;;;;;;5013756;28;20484;-63
2023/08/14 13:28:34;;;;;;;6.65;2.97;;;;;;;;;;5015818;28;20069;-64
2023/08/14 13:30:59;;;;;;;5.32;3.05;;;;;;;;;;5011964;28;20022;-63
2023/08/14 13:33:27;;;;;;;5.67;3.20;;;;;;;;;;5012823;28;20409;-63
2023/08/14 13:35:52;;;;;;;4.88;3.05;;;;;;;;;;5014892;28;20367;-63
2023/08/14 13:38:17;;;;;;;6.23;3.33;;;;;;;;;;5012791;28;20091;-63
2023/08/14 13:40:42;;;;;;;5.13;3.30;;;;;;;;;;5014967;28;20284;-63
2023/08/14 13:43:08;;;;;;;5.67;3.37;;;;;;;;;;5012302;28;20679;-64
2023/08/14 13:45:33;;;;;;;5.68;3.20;;;;;;;;;;5014141;28;20013;-63
2023/08/14 13:47:59;;;;;;;5.38;3.13;;;;;;;;;;5043477;28;20026;-63
2023/08/14 13:50:26;;;;;;;5.50;3.43;;;;;;;;;;5010591;28;20021;-64
2023/08/14 13:52:56;;;;;;;5.70;3.50;;;;;;;;;;5016251;28;20035;-62
2023/08/14 13:55:25;;;;;;;7.07;3.10;;;;;;;;;;5012199;28;20036;-64
2023/08/14 13:57:50;;;;;;;6.30;3.50;;;;;;;;;;5015513;28;20028;-63
2023/08/14 14:00:17;;;;;;;5.53;3.33;;;;;;;;;;5017515;28;20264;-64
2023/08/14 14:02:43;;;;;;;5.25;3.03;;;;;;;;;;5012614;28;20041;-64
2023/08/14 14:05:10;;;;;;;5.23;3.10;;;;;;;;;;5013660;28;20982;-64
2023/08/14 14:07:35;;;;;;;6.63;3.58;;;;;;;;;;5014440;28;20055;-66
2023/08/14 14:10:01;;;;;;;5.57;3.53;;;;;;;;;;5011022;28;20021;-64
2023/08/14 14:12:27;;;;;;;5.80;3.27;;;;;;;;;;5016276;28;20043;-66
2023/08/14 14:14:53;;;;;;;6.57;3.45;;;;;;;;;;5011886;28;20034;-65
2023/08/14 14:17:18;;;;;;;6.83;3.10;;;;;;;;;;5011920;28;20797;-64
2023/08/14 14:19:46;;;;;;;5.00;3.07;;;;;;;;;;5016896;28;20271;-67
2023/08/14 14:22:11;;;;;;;5.90;3.20;;;;;;;;;;5013260;28;20053;-64
2023/08/14 14:24:37;;;;;;;5.17;3.13;;;;;;;;;;5019195;28;20021;-64
2023/08/14 14:27:02;;;;;;;5.00;3.30;;;;;;;;;;5018240;28;20101;-64
2023/08/14 14:29:29;;;;;;;5.32;3.47;;;;;;;;;;5017284;28;20047;-64
2023/08/14 14:31:57;;;;;;;7.53;3.75;;;;;;;;;;5015472;28;20108;-66
2023/08/14 14:34:23;;;;;;;6.32;3.33;;;;;;;;;;5014714;28;20060;-63
2023/08/14 14:36:48;;;;;;;5.05;3.22;;;;;;;;;;5014709;28;20835;-63
2023/08/14 14:39:15;;;;;;;7.33;3.50;;;;;;;;;;5014725;28;20029;-64